RUNWAY INFORMATION
Runway Length Width Elevation Displaced
Threshold
Heading | Runway Length Width Elevation Displaced
Threshold
Heading
17 6135 ft 131 ft 0 ft 0 ft 166 | 35 6135 ft 131 ft 0 ft 0 ft 346

 AIRPORT FREQUENCIES
Type GND Name GND Frequency 121.9 MHZ
Type TWR Name TWR Frequency 118.5 MHZ

 AIRPORT NEAR NAVIGATION AIDS

 METAR AND TAF INFORMATION
METAR FOR SVSA
ADDS - METARS form results

(0135 UTC 15 May 2021)
Data provider http://aviationweather.gov/metar/data/
 
Forecast for: SVSA (SAN ANTONIO TACH, VE)
Text: TAF SVSA 142200Z 1500/1600 16005KT 9999 SCT016 TX32/1517Z TN22/1507Z
Forecast period: 0000 UTC 15 May 2021 to 0000 UTC 16 May 2021
Forecast type: FROM: standard forecast or significant change
Winds: from the SSE (160 degrees) at 6 MPH (5 knots; 2.6 m/s)
Visibility: 6 or more miles (10+ km)
Ceiling: at least 12,000 feet AGL
Clouds: scattered clouds at 1600 feet AGL
Weather: no significant weather forecast for this period
Text: TEMPO 1500/1504 07004KT 9000 -DZ BKN016
Forecast period: 0000 to 0400 UTC 15 May 2021
Forecast type: TEMPORARY: The following changes expected for less than half the time period
Winds: from the ENE (70 degrees) at 5 MPH (4 knots; 2.1 m/s)
Visibility: 6 miles (9 km)
Ceiling: 1600 feet AGL
Clouds: broken clouds at 1600 feet AGL
Weather: -DZ  (light drizzle)



© 2013 - 2021, FlightSimLog.org - Powered by Virtual Airlines Manager